Time;durP1;ratioP1;P1;durP2;ratioP2;P2;SDS_P1;SDS_P2;PMS_P1;PMS_P2;Temp;Humidity;BMP_temperature;BMP_pressure;BME280_temperature;BME280_humidity;BME280_pressure;Samples;Min_cycle;Max_cycle;Signal;HPM_P1;HPM_P2
2022/06/17 00:00:56;;;;;;;18.85;15.90;;;16.30;99.90;;;;;;5074500;28;20041;-76
2022/06/17 00:03:25;;;;;;;16.70;14.88;;;16.40;99.90;;;;;;5074539;28;20037;-75
2022/06/17 00:05:51;;;;;;;15.98;13.52;;;16.30;99.90;;;;;;5074276;28;20052;-72
2022/06/17 00:08:25;;;;;;;19.20;13.88;;;16.30;99.90;;;;;;5084267;28;20060;-71
2022/06/17 00:10:50;;;;;;;21.98;14.35;;;16.40;99.90;;;;;;5077037;28;20377;-71
2022/06/17 00:13:18;;;;;;;18.15;15.10;;;16.40;99.90;;;;;;5069410;28;20044;-75
2022/06/17 00:15:45;;;;;;;17.02;14.50;;;16.30;99.90;;;;;;5078257;28;20051;-72
2022/06/17 00:18:15;;;;;;;16.30;14.60;;;16.40;99.90;;;;;;5060754;28;20088;-72
2022/06/17 00:20:42;;;;;;;15.73;13.85;;;16.40;99.90;;;;;;5078472;28;20047;-74
2022/06/17 00:23:14;;;;;;;17.08;14.85;;;16.30;99.90;;;;;;5078214;28;20127;-72
2022/06/17 00:25:41;;;;;;;19.02;15.27;;;16.40;99.90;;;;;;5077718;28;20044;-72
2022/06/17 00:28:13;;;;;;;16.38;14.68;;;16.40;99.90;;;;;;5078005;28;20040;-72
2022/06/17 00:30:39;;;;;;;16.83;14.85;;;16.40;99.90;;;;;;5078003;28;20045;-75
2022/06/17 00:33:05;;;;;;;19.92;14.55;;;16.40;99.90;;;;;;5078080;28;20131;-73
2022/06/17 00:35:35;;;;;;;20.25;14.60;;;16.30;99.90;;;;;;5077586;28;20516;-74
2022/06/17 00:38:02;;;;;;;21.42;14.45;;;16.30;99.90;;;;;;5078111;28;20044;-73
2022/06/17 00:40:31;;;;;;;16.85;14.68;;;16.40;99.90;;;;;;5064704;28;20461;-71
2022/06/17 00:43:02;;;;;;;16.48;13.75;;;16.40;99.90;;;;;;5080540;28;20343;-73
2022/06/17 00:45:37;;;;;;;16.83;13.10;;;16.40;99.90;;;;;;5080198;28;20056;-73
2022/06/17 00:48:15;;;;;;;16.20;13.25;;;16.40;99.90;;;;;;5098092;28;20457;-74
2022/06/17 00:51:14;;;;;;;16.40;12.82;;;16.40;99.90;;;;;;5097826;28;20347;-73
2022/06/17 00:53:50;;;;;;;18.98;14.10;;;16.40;99.90;;;;;;5096157;28;20087;-74
2022/06/17 00:56:28;;;;;;;14.65;12.77;;;16.40;99.90;;;;;;5076946;28;20079;-74
2022/06/17 00:59:05;;;;;;;16.80;13.63;;;16.40;99.90;;;;;;5077368;28;20044;-75
2022/06/17 01:01:46;;;;;;;17.65;14.20;;;16.40;99.90;;;;;;5077369;28;20094;-73
2022/06/17 01:04:16;;;;;;;14.32;12.85;;;16.40;99.90;;;;;;5077567;28;20080;-74
2022/06/17 01:06:55;;;;;;;18.30;13.27;;;16.30;99.90;;;;;;5077444;28;20106;-76
2022/06/17 01:12:16;;;;;;;16.77;12.95;;;16.30;99.90;;;;;;5097563;28;20044;-72
2022/06/17 01:14:43;;;;;;;15.48;13.32;;;16.30;99.90;;;;;;5097320;28;20477;-73
2022/06/17 01:17:14;;;;;;;16.88;13.48;;;16.30;99.90;;;;;;5097491;28;20054;-72
2022/06/17 01:19:45;;;;;;;18.63;13.30;;;16.30;99.90;;;;;;5097314;28;20036;-74
2022/06/17 01:22:26;;;;;;;15.48;11.95;;;16.20;99.90;;;;;;5097131;28;20036;-71
2022/06/17 01:24:59;;;;;;;15.65;12.27;;;16.30;99.90;;;;;;5080423;28;20417;-75
2022/06/17 01:27:28;;;;;;;15.77;12.32;;;16.30;99.90;;;;;;5076344;28;20040;-74
2022/06/17 01:29:54;;;;;;;18.33;12.05;;;16.20;99.90;;;;;;5076934;28;20063;-74
2022/06/17 01:32:25;;;;;;;17.95;13.57;;;16.20;99.90;;;;;;5059496;28;20045;-75
2022/06/17 01:34:52;;;;;;;14.82;11.80;;;16.20;99.90;;;;;;5076963;28;20523;-75
2022/06/17 01:37:18;;;;;;;13.27;11.88;;;16.20;99.90;;;;;;5076823;28;20347;-72
2022/06/17 01:39:44;;;;;;;16.40;12.48;;;16.20;99.90;;;;;;5076253;28;20062;-72
2022/06/17 01:42:10;;;;;;;16.15;12.35;;;16.20;99.90;;;;;;5076586;28;20036;-73
2022/06/17 01:44:39;;;;;;;15.55;12.15;;;16.20;99.90;;;;;;5076783;28;20109;-72
2022/06/17 01:47:11;;;;;;;16.77;12.30;;;16.20;99.90;;;;;;5076438;28;20056;-72
2022/06/17 01:49:53;;;;;;;16.25;12.07;;;16.20;99.90;;;;;;5076516;28;20048;-75
2022/06/17 01:52:27;;;;;;;14.35;12.88;;;16.20;99.90;;;;;;5076581;28;20047;-74
2022/06/17 01:55:08;;;;;;;15.63;13.50;;;16.10;99.90;;;;;;5076343;28;20040;-73
2022/06/17 01:57:42;;;;;;;18.80;13.43;;;16.10;99.90;;;;;;5076169;28;20045;-72
2022/06/17 02:00:16;;;;;;;18.30;12.85;;;16.10;99.90;;;;;;5075768;28;20040;-75
2022/06/17 02:02:45;;;;;;;13.73;12.32;;;16.10;99.90;;;;;;5076405;28;20066;-74
2022/06/17 02:05:11;;;;;;;15.18;12.73;;;16.00;99.90;;;;;;5076501;28;20048;-74
2022/06/17 02:07:52;;;;;;;14.23;12.77;;;16.00;99.90;;;;;;5075987;28;20125;-72
2022/06/17 02:10:19;;;;;;;16.48;13.77;;;16.00;99.90;;;;;;5075859;28;20072;-73
2022/06/17 02:12:45;;;;;;;16.15;13.00;;;16.00;99.90;;;;;;5076107;28;20045;-73
2022/06/17 02:15:11;;;;;;;19.20;12.90;;;16.00;99.90;;;;;;5075721;28;20439;-73
2022/06/17 02:17:41;;;;;;;15.68;13.43;;;16.00;99.90;;;;;;5076066;28;20100;-71
2022/06/17 02:20:09;;;;;;;18.48;12.82;;;15.90;99.90;;;;;;5075937;28;20055;-72
2022/06/17 02:22:35;;;;;;;14.52;12.02;;;15.90;99.90;;;;;;5075792;28;20052;-74
2022/06/17 02:25:06;;;;;;;13.93;11.55;;;15.90;99.90;;;;;;5075894;28;20421;-73
2022/06/17 02:27:34;;;;;;;16.65;13.60;;;15.90;99.90;;;;;;5075819;28;20098;-72
2022/06/17 02:30:02;;;;;;;15.55;12.13;;;15.90;99.90;;;;;;5057457;28;20123;-73
2022/06/17 02:32:30;;;;;;;14.43;12.27;;;15.90;99.90;;;;;;5075872;28;20050;-75
2022/06/17 02:35:00;;;;;;;13.27;11.93;;;15.90;99.90;;;;;;5057809;28;20123;-73
2022/06/17 02:37:27;;;;;;;13.85;11.60;;;15.90;99.90;;;;;;5075359;28;20135;-72
2022/06/17 02:39:55;;;;;;;18.77;12.95;;;15.90;99.90;;;;;;5075530;28;20063;-72
2022/06/17 02:42:31;;;;;;;15.35;12.65;;;15.90;99.90;;;;;;5057914;28;20074;-71
2022/06/17 02:45:20;;;;;;;15.48;11.85;;;15.90;99.90;;;;;;5079045;28;20416;-72
2022/06/17 02:47:46;;;;;;;15.45;12.13;;;15.90;99.90;;;;;;5095651;28;20052;-74
2022/06/17 02:50:18;;;;;;;16.10;11.77;;;15.90;99.90;;;;;;5095430;28;20063;-74
2022/06/17 02:52:47;;;;;;;16.25;12.10;;;15.90;99.90;;;;;;5095581;28;20048;-73
2022/06/17 02:55:26;;;;;;;13.98;11.88;;;16.00;99.90;;;;;;5095586;28;20048;-71
2022/06/17 02:57:56;;;;;;;12.77;11.48;;;16.00;99.90;;;;;;5095702;28;20441;-71
2022/06/17 03:00:22;;;;;;;13.68;11.55;;;16.00;99.90;;;;;;5062730;28;20123;-71
2022/06/17 03:02:52;;;;;;;14.52;11.80;;;16.00;99.90;;;;;;5057587;28;20135;-76
2022/06/17 03:05:26;;;;;;;13.45;11.38;;;15.90;99.90;;;;;;5075237;28;20052;-71
2022/06/17 03:07:53;;;;;;;14.82;10.77;;;15.90;99.90;;;;;;5074682;28;20441;-71
2022/06/17 03:10:29;;;;;;;15.30;11.30;;;15.90;99.90;;;;;;5057104;28;20102;-71
2022/06/17 03:13:01;;;;;;;17.50;12.25;;;15.90;99.90;;;;;;5074793;28;20435;-72
2022/06/17 03:15:27;;;;;;;11.68;10.35;;;15.90;99.90;;;;;;5091303;28;20504;-71
2022/06/17 03:17:53;;;;;;;12.40;10.63;;;16.00;99.90;;;;;;5095405;28;20086;-74
2022/06/17 03:20:29;;;;;;;15.43;11.10;;;15.90;99.90;;;;;;5094943;28;20462;-71
2022/06/17 03:23:00;;;;;;;15.45;11.38;;;16.00;99.90;;;;;;5077486;28;20055;-74
2022/06/17 03:25:40;;;;;;;13.93;11.75;;;16.00;99.90;;;;;;5095094;28;20102;-71
2022/06/17 03:28:12;;;;;;;14.18;11.43;;;15.90;99.90;;;;;;5094917;28;20111;-73
2022/06/17 03:30:50;;;;;;;13.27;10.93;;;15.90;99.90;;;;;;5074919;28;20084;-71
2022/06/17 03:33:45;;;;;;;14.23;10.70;;;16.00;99.90;;;;;;5074414;28;20485;-72
2022/06/17 03:36:17;;;;;;;11.85;10.65;;;16.00;99.90;;;;;;5045583;28;20064;-74
2022/06/17 03:38:53;;;;;;;16.02;11.57;;;16.00;99.90;;;;;;5074889;28;20097;-73
2022/06/17 03:41:32;;;;;;;14.55;10.90;;;16.10;99.90;;;;;;5074354;28;20040;-71
2022/06/17 03:44:09;;;;;;;17.58;11.30;;;16.10;99.90;;;;;;5074321;28;20158;-72
2022/06/17 03:46:56;;;;;;;14.75;11.05;;;16.00;99.90;;;;;;5056667;28;20071;-71
2022/06/17 03:49:43;;;;;;;16.08;10.90;;;16.10;99.90;;;;;;5076176;28;20040;-72
2022/06/17 03:52:19;;;;;;;12.00;10.73;;;16.10;99.90;;;;;;5078663;28;20044;-72
2022/06/17 03:54:45;;;;;;;13.07;10.38;;;16.10;99.90;;;;;;5043653;28;20045;-73
2022/06/17 03:57:12;;;;;;;13.75;12.38;;;16.10;99.90;;;;;;5069671;28;20522;-72
2022/06/17 03:59:40;;;;;;;14.20;11.30;;;16.10;99.90;;;;;;5064768;28;20037;-73
2022/06/17 04:02:11;;;;;;;14.35;10.30;;;16.10;99.90;;;;;;5078555;28;20090;-73
2022/06/17 04:04:48;;;;;;;13.50;11.48;;;16.10;99.90;;;;;;5078576;28;20044;-72
2022/06/17 04:07:14;;;;;;;14.63;10.70;;;16.10;99.90;;;;;;5078617;28;20045;-74
2022/06/17 04:09:44;;;;;;;12.10;10.85;;;16.10;99.90;;;;;;5077951;28;20454;-72
2022/06/17 04:12:12;;;;;;;12.35;11.07;;;16.10;99.90;;;;;;5090806;28;20429;-71
2022/06/17 04:14:54;;;;;;;12.38;11.18;;;16.20;99.90;;;;;;5080609;28;20044;-74
2022/06/17 04:17:28;;;;;;;14.85;11.60;;;16.20;99.90;;;;;;5091129;28;20093;-72
2022/06/17 04:20:24;;;;;;;15.32;11.40;;;16.20;99.90;;;;;;5078284;28;20037;-74
2022/06/17 04:22:53;;;;;;;12.00;10.77;;;16.30;99.90;;;;;;5077918;28;20045;-75
2022/06/17 04:25:29;;;;;;;12.00;10.70;;;16.20;99.90;;;;;;5078111;28;20058;-72
2022/06/17 04:27:58;;;;;;;13.02;11.60;;;16.30;99.90;;;;;;5077824;28;20076;-71
2022/06/17 04:30:31;;;;;;;16.23;11.00;;;16.30;99.90;;;;;;5077880;28;20048;-73
2022/06/17 04:33:06;;;;;;;13.23;11.37;;;16.30;99.90;;;;;;5077945;28;20117;-71
2022/06/17 04:35:35;;;;;;;18.58;11.30;;;16.30;99.90;;;;;;5060079;28;20123;-72
2022/06/17 04:38:00;;;;;;;14.35;10.95;;;16.40;99.90;;;;;;5084505;28;20481;-70
2022/06/17 04:40:34;;;;;;;16.50;12.15;;;16.40;99.90;;;;;;5063279;28;20055;-73
2022/06/17 04:43:04;;;;;;;15.80;12.53;;;16.40;99.90;;;;;;5098096;28;20472;-69
2022/06/17 04:45:29;;;;;;;12.90;11.57;;;16.40;99.90;;;;;;5098009;28;20361;-71
2022/06/17 04:47:57;;;;;;;14.73;12.20;;;16.40;99.90;;;;;;5097932;28;20133;-70
2022/06/17 04:50:25;;;;;;;15.30;11.13;;;16.40;99.90;;;;;;5075259;28;20048;-71
2022/06/17 04:52:55;;;;;;;17.55;11.32;;;16.40;99.90;;;;;;5077332;28;20056;-71
2022/06/17 04:55:35;;;;;;;14.77;11.30;;;16.50;99.90;;;;;;5060362;28;20474;-72
2022/06/17 04:58:01;;;;;;;13.32;10.98;;;16.40;99.90;;;;;;5077289;28;20083;-70
2022/06/17 05:00:28;;;;;;;13.50;12.07;;;16.50;99.90;;;;;;5077955;28;20101;-70
2022/06/17 05:02:54;;;;;;;13.98;11.40;;;16.50;99.90;;;;;;5096444;28;20051;-72
2022/06/17 05:05:46;;;;;;;13.73;11.65;;;16.60;99.90;;;;;;5077037;28;20044;-70
2022/06/17 05:08:19;;;;;;;20.05;12.65;;;16.60;99.90;;;;;;5072753;28;20080;-74
2022/06/17 05:10:52;;;;;;;14.77;11.43;;;16.60;99.90;;;;;;5076923;28;20374;-70
2022/06/17 05:13:25;;;;;;;16.85;12.65;;;16.60;99.90;;;;;;5084299;28;20460;-73
2022/06/17 05:15:51;;;;;;;12.90;11.52;;;16.70;99.90;;;;;;5097345;28;20047;-72
2022/06/17 05:18:17;;;;;;;14.55;11.30;;;16.70;99.90;;;;;;5097399;28;20036;-70
2022/06/17 05:20:44;;;;;;;14.00;12.10;;;16.80;99.90;;;;;;5079689;28;20048;-69
2022/06/17 05:23:12;;;;;;;19.20;12.77;;;16.80;99.90;;;;;;5090992;28;20044;-69
2022/06/17 05:25:39;;;;;;;13.20;11.70;;;16.90;99.90;;;;;;5077021;28;20045;-72
2022/06/17 05:28:07;;;;;;;13.30;12.00;;;16.90;99.90;;;;;;5065614;28;20052;-72
2022/06/17 05:30:40;;;;;;;13.57;11.20;;;16.90;99.90;;;;;;5079037;28;20051;-70
2022/06/17 05:33:10;;;;;;;16.63;11.63;;;17.00;99.90;;;;;;5079422;28;20090;-72
2022/06/17 05:35:36;;;;;;;13.57;12.00;;;17.00;99.90;;;;;;5095385;28;20442;-70
2022/06/17 05:38:01;;;;;;;15.40;11.95;;;16.90;99.90;;;;;;5050006;28;20135;-73
2022/06/17 05:40:27;;;;;;;12.75;11.50;;;17.00;99.90;;;;;;5076854;28;20055;-73
2022/06/17 05:42:53;;;;;;;13.60;11.48;;;17.00;99.90;;;;;;5076682;28;20036;-73
2022/06/17 05:45:25;;;;;;;15.43;12.75;;;17.00;99.90;;;;;;5076773;28;20446;-77
2022/06/17 05:47:52;;;;;;;13.63;11.93;;;17.10;99.90;;;;;;5079880;28;20096;-73
2022/06/17 05:50:19;;;;;;;12.23;11.02;;;17.10;99.90;;;;;;5086263;28;20048;-72
2022/06/17 05:52:54;;;;;;;15.05;13.02;;;17.20;99.90;;;;;;5096959;28;20085;-75
2022/06/17 05:55:21;;;;;;;15.10;11.95;;;17.30;99.90;;;;;;5078518;28;20048;-75
2022/06/17 05:57:46;;;;;;;16.90;11.85;;;17.30;99.90;;;;;;5076730;28;20044;-73
2022/06/17 06:00:12;;;;;;;14.02;12.18;;;17.40;99.90;;;;;;5076347;28;20462;-72
2022/06/17 06:02:38;;;;;;;15.52;11.90;;;17.40;99.90;;;;;;5076515;28;20127;-72
2022/06/17 06:05:05;;;;;;;19.95;12.57;;;17.50;99.90;;;;;;5076158;28;20499;-72
2022/06/17 06:07:30;;;;;;;15.45;12.82;;;17.60;99.90;;;;;;5093809;28;20153;-73
2022/06/17 06:09:56;;;;;;;15.52;12.57;;;17.50;99.90;;;;;;5078170;28;20079;-73
2022/06/17 06:12:22;;;;;;;13.90;12.02;;;17.60;99.90;;;;;;5095772;28;20036;-75
2022/06/17 06:14:47;;;;;;;13.52;12.13;;;17.70;99.90;;;;;;5095602;28;20048;-76
2022/06/17 06:17:13;;;;;;;14.10;12.52;;;17.80;99.90;;;;;;5096251;28;20489;-73
2022/06/17 06:19:39;;;;;;;12.93;11.65;;;17.90;99.90;;;;;;5061402;28;20040;-72
2022/06/17 06:22:05;;;;;;;14.02;11.50;;;17.90;99.90;;;;;;5096051;28;20043;-74
2022/06/17 06:24:30;;;;;;;21.33;12.43;;;17.90;99.90;;;;;;5096027;28;20044;-73
2022/06/17 06:26:56;;;;;;;13.32;11.63;;;18.00;99.90;;;;;;5061384;28;20442;-71
2022/06/17 06:29:22;;;;;;;15.95;12.13;;;18.00;99.90;;;;;;5096035;28;20043;-74
2022/06/17 06:31:48;;;;;;;14.80;11.35;;;18.10;99.90;;;;;;5094703;28;20411;-72
2022/06/17 06:34:16;;;;;;;13.45;12.07;;;18.20;99.90;;;;;;5095446;28;20481;-73
2022/06/17 06:36:42;;;;;;;14.02;11.20;;;18.20;99.90;;;;;;5078046;28;20059;-72
2022/06/17 06:39:08;;;;;;;15.43;11.80;;;18.20;99.90;;;;;;5095801;28;20362;-71
2022/06/17 06:41:33;;;;;;;17.25;12.40;;;18.20;99.90;;;;;;5061702;28;20052;-75
2022/06/17 06:43:59;;;;;;;12.70;10.88;;;18.30;99.90;;;;;;5060795;28;20087;-74
2022/06/17 06:46:25;;;;;;;13.88;12.40;;;18.40;99.90;;;;;;5075285;28;20524;-72
2022/06/17 06:48:51;;;;;;;17.85;11.93;;;18.40;99.90;;;;;;5088437;28;20113;-75
2022/06/17 06:51:16;;;;;;;13.48;11.63;;;18.40;99.90;;;;;;5095524;28;20052;-70
2022/06/17 06:53:42;;;;;;;14.70;10.68;;;18.50;99.90;;;;;;5095485;28;20040;-74
2022/06/17 06:56:08;;;;;;;14.70;11.85;;;18.60;99.90;;;;;;5095386;28;20525;-72
2022/06/17 06:58:33;;;;;;;14.38;11.60;;;18.70;99.90;;;;;;5095484;28;20427;-70
2022/06/17 07:00:59;;;;;;;14.32;11.60;;;18.80;99.90;;;;;;5095488;28;20351;-72
2022/06/17 07:03:27;;;;;;;13.23;11.30;;;18.90;99.90;;;;;;5077760;28;20056;-73
2022/06/17 07:05:55;;;;;;;16.33;11.98;;;18.90;99.90;;;;;;5094608;28;20035;-74
2022/06/17 07:08:24;;;;;;;15.75;11.50;;;19.00;99.90;;;;;;5095348;28;20052;-71
2022/06/17 07:10:55;;;;;;;13.35;11.77;;;19.00;99.90;;;;;;5095099;28;20051;-73
2022/06/17 07:13:22;;;;;;;13.27;11.88;;;19.10;99.90;;;;;;5095335;28;20040;-74
2022/06/17 07:15:49;;;;;;;15.90;11.52;;;19.10;99.90;;;;;;5095274;28;20446;-71
2022/06/17 07:18:18;;;;;;;12.60;11.35;;;19.10;99.90;;;;;;5077631;28;20059;-72
2022/06/17 07:20:48;;;;;;;17.85;12.30;;;19.20;99.90;;;;;;5095416;28;20122;-71
2022/06/17 07:23:35;;;;;;;17.85;11.98;;;19.20;99.90;;;;;;5093117;28;20433;-71
2022/06/17 07:26:08;;;;;;;14.18;11.82;;;19.30;99.90;;;;;;5076686;28;20416;-69
2022/06/17 07:28:34;;;;;;;19.30;11.75;;;19.40;99.90;;;;;;5077317;28;20092;-73
2022/06/17 07:31:00;;;;;;;11.15;9.82;;;19.50;99.90;;;;;;5095166;28;20083;-71
2022/06/17 07:33:29;;;;;;;20.02;12.15;;;19.60;99.90;;;;;;5094680;28;20395;-70
2022/06/17 07:35:57;;;;;;;18.33;12.70;;;19.60;99.90;;;;;;5094964;28;20036;-73
2022/06/17 07:41:19;;;;;;;18.58;12.40;;;19.60;99.90;;;;;;5046613;28;20138;-72
2022/06/17 07:43:45;;;;;;;13.60;11.23;;;19.60;99.90;;;;;;5079080;28;20048;-71
2022/06/17 07:46:11;;;;;;;16.85;11.90;;;19.60;99.90;;;;;;5056995;28;20063;-74
2022/06/17 07:48:38;;;;;;;13.98;11.05;;;19.70;99.90;;;;;;5057224;28;20048;-72
2022/06/17 07:51:06;;;;;;;14.90;11.90;;;19.70;99.90;;;;;;5074304;28;20421;-73
2022/06/17 07:53:35;;;;;;;22.60;12.65;;;19.80;99.90;;;;;;5075041;28;20041;-74
2022/06/17 07:56:03;;;;;;;16.52;12.65;;;19.90;99.90;;;;;;5057985;28;20044;-73
2022/06/17 07:58:28;;;;;;;12.82;10.60;;;20.10;99.90;;;;;;5056470;28;20045;-71
2022/06/17 08:00:55;;;;;;;12.27;10.98;;;20.30;99.90;;;;;;5074941;28;20044;-74
2022/06/17 08:03:21;;;;;;;13.10;11.40;;;20.40;99.90;;;;;;5074446;28;20044;-73
2022/06/17 08:05:50;;;;;;;14.05;11.45;;;20.60;99.90;;;;;;5074448;28;20527;-71
2022/06/17 08:08:21;;;;;;;13.32;10.50;;;20.60;99.90;;;;;;5074222;28;20386;-73
2022/06/17 08:10:52;;;;;;;17.25;10.80;;;20.70;99.90;;;;;;5074454;28;20057;-74
2022/06/17 08:13:19;;;;;;;12.90;10.20;;;20.80;99.90;;;;;;5074638;28;20052;-75
2022/06/17 08:15:45;;;;;;;11.25;9.77;;;20.80;99.90;;;;;;5074528;28;20062;-72
2022/06/17 08:18:12;;;;;;;12.55;9.20;;;20.70;99.90;;;;;;5074346;28;20459;-73
2022/06/17 08:20:38;;;;;;;15.52;10.13;;;20.90;99.90;;;;;;5074077;28;20485;-70
2022/06/17 08:23:05;;;;;;;12.25;9.52;;;21.00;99.90;;;;;;5074702;28;20044;-74
2022/06/17 08:25:32;;;;;;;10.98;9.32;;;20.90;99.90;;;;;;5075036;28;20067;-72
2022/06/17 08:28:02;;;;;;;15.23;9.50;;;20.90;99.90;;;;;;5075348;28;20047;-72
2022/06/17 08:30:33;;;;;;;12.60;9.18;;;20.90;99.90;;;;;;5074946;28;20055;-73
2022/06/17 08:32:59;;;;;;;13.32;9.40;;;21.00;99.90;;;;;;5074562;28;20041;-73
2022/06/17 08:35:38;;;;;;;9.70;8.45;;;21.00;99.90;;;;;;5075652;28;20396;-73
2022/06/17 08:38:08;;;;;;;13.65;9.95;;;21.10;99.90;;;;;;5077941;28;20454;-73
2022/06/17 08:40:59;;;;;;;11.80;8.80;;;21.10;99.90;;;;;;5078066;28;20044;-72
2022/06/17 08:43:24;;;;;;;11.18;9.25;;;21.10;99.90;;;;;;5065256;28;20067;-71
2022/06/17 08:46:11;;;;;;;12.20;9.85;;;21.10;99.90;;;;;;5077825;28;20037;-70
2022/06/17 08:49:08;;;;;;;12.45;9.13;;;21.00;99.90;;;;;;5077269;28;20052;-71
2022/06/17 08:51:42;;;;;;;14.40;9.35;;;21.10;99.90;;;;;;5077560;28;20080;-72
2022/06/17 08:54:30;;;;;;;11.15;8.95;;;21.20;99.90;;;;;;5077688;28;20362;-73
2022/06/17 08:57:00;;;;;;;14.15;9.00;;;21.20;99.90;;;;;;5077519;28;20044;-72
2022/06/17 08:59:25;;;;;;;10.20;8.05;;;21.30;99.90;;;;;;5077442;28;20051;-74
2022/06/17 09:02:00;;;;;;;10.38;8.90;;;21.40;99.90;;;;;;5078645;28;20040;-72
2022/06/17 09:04:35;;;;;;;;;;;21.40;99.90;;;;;;5060691;28;20044;-74
2022/06/17 09:07:06;;;;;;;12.65;8.45;;;21.40;99.90;;;;;;5077491;28;20261;-71
2022/06/17 09:09:44;;;;;;;9.00;7.80;;;21.50;99.90;;;;;;5059293;28;20056;-74
2022/06/17 09:12:26;;;;;;;10.98;8.27;;;21.50;99.90;;;;;;5077402;28;20045;-72
2022/06/17 09:15:14;;;;;;;11.10;8.38;;;21.60;99.90;;;;;;5077192;28;20041;-72
2022/06/17 09:17:46;;;;;;;16.10;9.40;;;21.70;99.90;;;;;;5077057;28;20059;-73
2022/06/17 09:20:17;;;;;;;13.10;8.32;;;21.80;99.90;;;;;;5077217;28;20044;-73
2022/06/17 09:22:49;;;;;;;11.70;9.13;;;22.00;99.90;;;;;;5076707;28;20063;-73
2022/06/17 09:25:19;;;;;;;13.10;9.90;;;22.10;99.90;;;;;;5076708;28;20513;-72
2022/06/17 09:27:51;;;;;;;12.50;8.23;;;22.10;99.90;;;;;;5076932;28;20040;-73
2022/06/17 09:30:31;;;;;;;10.25;8.63;;;22.30;99.90;;;;;;5076747;28;20074;-73
2022/06/17 09:33:13;;;;;;;15.10;8.02;;;22.50;99.90;;;;;;5076797;28;20130;-71
2022/06/17 09:36:01;;;;;;;12.00;8.07;;;22.50;99.90;;;;;;5076705;28;20112;-72
2022/06/17 09:38:44;;;;;;;11.60;8.63;;;22.50;99.90;;;;;;5077010;28;20036;-74
2022/06/17 09:41:22;;;;;;;10.80;8.50;;;22.40;99.90;;;;;;5076722;28;20041;-73
2022/06/17 09:43:57;;;;;;;11.50;7.80;;;22.40;99.90;;;;;;5077030;28;20044;-73
2022/06/17 09:46:38;;;;;;;9.98;7.22;;;22.40;99.90;;;;;;5075762;28;20529;-74
2022/06/17 09:49:29;;;;;;;14.27;6.78;;;22.60;99.90;;;;;;5059068;28;20056;-74
2022/06/17 09:52:07;;;;;;;13.80;6.75;;;22.70;99.90;;;;;;5042487;28;20106;-72
2022/06/17 09:55:09;;;;;;;14.63;8.07;;;22.90;99.90;;;;;;5060555;28;20092;-73
2022/06/17 09:57:57;;;;;;;12.75;7.40;;;23.30;99.90;;;;;;5057239;28;20055;-70
2022/06/17 10:00:28;;;;;;;12.30;7.63;;;23.40;99.90;;;;;;5096445;28;20048;-72
2022/06/17 10:03:25;;;;;;;11.65;7.50;;;23.20;99.90;;;;;;5096459;28;20044;-71
2022/06/17 10:05:59;;;;;;;11.52;7.10;;;23.50;99.90;;;;;;5062297;28;20115;-74
2022/06/17 10:08:55;;;;;;;10.10;7.68;;;23.40;99.90;;;;;;5096211;28;20097;-74
2022/06/17 10:11:41;;;;;;;16.27;7.55;;;23.40;99.90;;;;;;5095215;28;20085;-74
2022/06/17 10:14:21;;;;;;;11.52;7.18;;;23.40;99.90;;;;;;5078975;28;20055;-73
2022/06/17 10:20:14;;;;;;;10.10;6.60;;;23.50;99.90;;;;;;5095983;28;20047;-74
2022/06/17 10:22:51;;;;;;;9.05;7.28;;;23.50;99.90;;;;;;5095955;28;20446;-71
2022/06/17 10:25:23;;;;;;;12.88;7.25;;;23.40;99.90;;;;;;5096144;28;20071;-73
2022/06/17 10:28:00;;;;;;;10.65;7.85;;;23.40;99.90;;;;;;5096039;28;20105;-71
2022/06/17 10:30:45;;;;;;;14.05;7.70;;;23.40;99.90;;;;;;5094797;28;20104;-73
2022/06/17 10:33:14;;;;;;;21.05;8.68;;;23.60;99.90;;;;;;5096057;28;20123;-73
2022/06/17 10:35:41;;;;;;;11.98;8.82;;;23.60;99.90;;;;;;5095815;28;20044;-73
2022/06/17 10:38:11;;;;;;;13.05;7.82;;;23.60;99.90;;;;;;5095813;28;20047;-73
2022/06/17 10:40:40;;;;;;;18.35;8.20;;;23.60;99.90;;;;;;5095662;28;20115;-74
2022/06/17 10:43:11;;;;;;;12.80;8.15;;;23.50;99.90;;;;;;5085417;28;20060;-73
2022/06/17 10:45:37;;;;;;;13.70;8.27;;;23.50;99.90;;;;;;5057448;28;20044;-72
2022/06/17 10:48:20;;;;;;;12.25;8.23;;;23.50;99.90;;;;;;5057857;28;20125;-71
2022/06/17 10:50:46;;;;;;;11.30;7.07;;;23.60;99.90;;;;;;5075008;28;20511;-72
2022/06/17 10:53:28;;;;;;;11.82;7.18;;;23.70;99.90;;;;;;5057761;28;20040;-74
2022/06/17 10:55:58;;;;;;;11.10;7.63;;;23.70;99.90;;;;;;5075332;28;20040;-75
2022/06/17 10:58:30;;;;;;;11.43;7.82;;;23.70;99.90;;;;;;5074978;28;20097;-73
2022/06/17 11:01:10;;;;;;;12.85;8.15;;;23.80;99.90;;;;;;5075165;28;20132;-74
2022/06/17 11:03:41;;;;;;;12.80;7.75;;;23.90;99.90;;;;;;5086309;28;20102;-72
2022/06/17 11:06:09;;;;;;;9.38;6.63;;;24.20;99.90;;;;;;5095476;28;20044;-73
2022/06/17 11:08:50;;;;;;;12.38;7.88;;;24.60;99.90;;;;;;5095416;28;20052;-72
2022/06/17 11:14:04;;;;;;;12.32;7.13;;;25.10;99.90;;;;;;5094821;28;20052;-75
2022/06/17 11:16:42;;;;;;;12.02;6.93;;;25.20;99.90;;;;;;5094946;28;20366;-71
2022/06/17 11:19:14;;;;;;;13.30;7.30;;;25.30;99.40;;;;;;5095455;28;20040;-74
2022/06/17 11:21:51;;;;;;;10.57;6.88;;;25.30;99.40;;;;;;5074734;28;20378;-75
2022/06/17 11:24:24;;;;;;;11.10;7.47;;;25.50;99.70;;;;;;5074871;28;20040;-73
2022/06/17 11:27:22;;;;;;;11.25;7.28;;;25.50;99.30;;;;;;5057190;28;20044;-71
2022/06/17 11:29:51;;;;;;;10.55;6.57;;;25.70;98.70;;;;;;5074792;28;20041;-71
2022/06/17 11:32:19;;;;;;;12.65;7.03;;;26.00;99.10;;;;;;5057577;28;20048;-72
2022/06/17 11:34:53;;;;;;;10.57;7.20;;;26.20;98.60;;;;;;5074308;28;20106;-72
2022/06/17 11:37:23;;;;;;;11.23;7.25;;;26.40;98.40;;;;;;5074594;28;20044;-75
2022/06/17 11:40:17;;;;;;;12.02;7.22;;;26.50;97.40;;;;;;5057277;28;20133;-71
2022/06/17 11:43:04;;;;;;;8.82;6.13;;;26.50;95.10;;;;;;5081762;28;20036;-72
2022/06/17 11:45:34;;;;;;;12.18;7.07;;;26.60;94.00;;;;;;5094571;28;20044;-75
2022/06/17 11:48:17;;;;;;;10.55;6.38;;;26.70;95.70;;;;;;5094700;28;20362;-74
2022/06/17 11:51:14;;;;;;;13.38;6.38;;;27.00;94.40;;;;;;5094858;28;20354;-72
2022/06/17 11:53:58;;;;;;;10.68;5.93;;;27.40;92.60;;;;;;5075746;28;20458;-73
2022/06/17 11:56:37;;;;;;;8.00;5.75;;;27.20;92.00;;;;;;5094789;28;20373;-72
2022/06/17 11:59:22;;;;;;;11.00;6.00;;;26.90;92.10;;;;;;5094789;28;20055;-72
2022/06/17 12:01:53;;;;;;;11.43;6.38;;;27.00;91.10;;;;;;5077064;28;20075;-72
2022/06/17 12:04:37;;;;;;;10.85;6.40;;;26.90;88.80;;;;;;5094253;28;20415;-72
2022/06/17 12:07:18;;;;;;;11.50;6.22;;;27.00;91.10;;;;;;5094394;28;20489;-75
2022/06/17 12:09:46;;;;;;;13.52;6.72;;;26.90;90.60;;;;;;5095039;28;20092;-71
2022/06/17 12:12:14;;;;;;;11.55;5.65;;;26.70;90.60;;;;;;5098052;28;20108;-71
2022/06/17 12:15:03;;;;;;;16.13;5.32;;;26.80;91.30;;;;;;5098348;28;20109;-73
2022/06/17 12:17:29;;;;;;;14.00;6.55;;;27.10;90.60;;;;;;5098101;28;20087;-74
2022/06/17 12:19:58;;;;;;;11.35;6.10;;;26.70;89.80;;;;;;5097564;28;20062;-74
2022/06/17 12:22:41;;;;;;;9.55;6.75;;;26.70;90.40;;;;;;5098639;28;20044;-72
2022/06/17 12:25:27;;;;;;;9.20;5.05;;;26.60;90.50;;;;;;5098021;28;20043;-74
2022/06/17 12:28:01;;;;;;;8.75;5.55;;;26.60;90.10;;;;;;5092274;28;20481;-72
2022/06/17 12:30:41;;;;;;;9.98;5.65;;;26.40;87.70;;;;;;5043642;28;20041;-74
2022/06/17 12:33:26;;;;;;;14.60;6.03;;;26.30;87.60;;;;;;5077947;28;20044;-76
2022/06/17 12:36:32;;;;;;;12.85;5.70;;;26.30;86.20;;;;;;5077938;28;20127;-76
2022/06/17 12:39:07;;;;;;;9.90;6.10;;;26.20;84.10;;;;;;4977045;28;20404;-74
2022/06/17 12:41:56;;;;;;;8.82;5.57;;;26.00;84.60;;;;;;5067257;28;20049;-72
2022/06/17 12:44:47;;;;;;;12.07;6.15;;;25.80;86.80;;;;;;5070165;28;20064;-75
2022/06/17 12:47:24;;;;;;;13.70;5.63;;;26.00;87.50;;;;;;5098280;28;20056;-76
2022/06/17 12:53:17;;;;;;;10.55;5.57;;;26.10;88.70;;;;;;5097828;28;20044;-73
2022/06/17 12:56:04;;;;;;;10.68;6.28;;;26.30;87.30;;;;;;5079894;28;20424;-74
2022/06/17 12:59:07;;;;;;;14.05;6.40;;;26.50;87.90;;;;;;5097623;28;20048;-71
2022/06/17 13:01:47;;;;;;;12.23;6.15;;;26.20;86.40;;;;;;5096996;28;20167;-74
2022/06/17 13:04:22;;;;;;;12.25;5.95;;;26.00;87.00;;;;;;5097831;28;20040;-75
2022/06/17 13:07:04;;;;;;;13.38;5.47;;;26.10;90.60;;;;;;5097621;28;20075;-73
2022/06/17 13:09:43;;;;;;;13.32;6.15;;;26.30;90.00;;;;;;5097230;28;20075;-73
2022/06/17 13:12:39;;;;;;;11.65;5.38;;;26.20;88.60;;;;;;5097492;28;20047;-76
2022/06/17 13:15:18;;;;;;;11.88;5.90;;;26.20;88.30;;;;;;5097182;28;20086;-73